Terminal Aerodrome Forecast
Issued by NWS

Home | Current Version | Previous Version | Text Only | Print | Product List | Glossary On
Versions: 1 2 3 4 5 6 7 8 9 10 11 12 13 14 15 16 17 18 19 20 21 22 23 24 25 26 27 28 29 30 31 32
000
FTUS41 KBOX 182341
TAFBAF
TAF
KBAF 182341Z 1900/1924 30012KT P6SM SKC
     FM190500 34005KT P6SM SKC
     FM191300 04005KT P6SM SKC
     FM191700 12005KT P6SM FEW250
     FM192000 18007KT P6SM FEW250=

USA.gov is the U.S. government's official web portal to all federal, state and local government web resources and services.